createdAt,value
2019-03-02T00:01:45.877Z,10.77
2019-03-02T00:07:13.830Z,9.90
2019-03-02T00:13:03.969Z,9.30
2019-03-02T00:18:33.572Z,10.80
2019-03-02T00:24:02.973Z,9.80
2019-03-02T00:29:32.400Z,11.63
2019-03-02T00:35:03.822Z,11.53
2019-03-02T00:40:33.902Z,12.57
2019-03-02T00:46:03.543Z,13.20
2019-03-02T00:51:52.193Z,12.90
2019-03-02T00:57:21.539Z,12.57
2019-03-02T01:02:54.405Z,14.97
2019-03-02T01:08:23.788Z,12.10
2019-03-02T01:13:53.687Z,12.67
2019-03-02T01:19:24.278Z,12.10
2019-03-02T01:24:53.668Z,12.67
2019-03-02T01:30:23.036Z,12.20
2019-03-02T01:35:53.934Z,14.00
2019-03-02T01:41:23.665Z,13.17
2019-03-02T01:46:54.642Z,12.90
2019-03-02T01:52:25.996Z,12.80
2019-03-02T01:57:55.451Z,13.33
2019-03-02T02:03:24.861Z,12.00
2019-03-02T02:08:55.408Z,11.63
2019-03-02T02:14:24.805Z,14.00
2019-03-02T02:19:54.204Z,12.30
2019-03-02T02:25:23.772Z,13.03
2019-03-02T02:30:53.168Z,12.90
2019-03-02T02:36:22.885Z,12.67
2019-03-02T02:41:52.292Z,14.00
2019-03-02T02:47:21.613Z,14.00
2019-03-02T02:52:51.018Z,13.93
2019-03-02T02:58:20.404Z,14.97
2019-03-02T03:03:49.955Z,14.10
2019-03-02T03:09:22.139Z,11.93
2019-03-02T03:14:54.341Z,15.00
2019-03-02T03:20:22.640Z,14.50
2019-03-02T03:25:56.852Z,14.97
2019-03-02T03:31:25.975Z,15.47
2019-03-02T03:36:54.243Z,16.23
2019-03-02T03:42:24.729Z,13.43
2019-03-02T03:47:54.209Z,12.07
2019-03-02T03:53:26.418Z,14.90
2019-03-02T03:58:54.712Z,16.43
2019-03-02T04:04:24.832Z,16.57
2019-03-02T04:09:55.288Z,14.33
2019-03-02T04:15:24.948Z,14.50
2019-03-02T04:20:54.247Z,15.97
2019-03-02T04:26:23.730Z,16.17
2019-03-02T04:31:53.038Z,12.70
2019-03-02T04:37:23.862Z,17.37
2019-03-02T04:42:53.420Z,14.07
2019-03-02T04:48:30.262Z,15.50
2019-03-02T04:54:01.818Z,13.63
2019-03-02T04:59:30.729Z,15.50
2019-03-02T05:05:00.159Z,14.17
2019-03-02T05:10:30.760Z,16.67
2019-03-02T05:16:00.161Z,17.73
2019-03-02T05:21:29.529Z,14.90
2019-03-02T05:26:59.029Z,13.03
2019-03-02T05:32:28.413Z,16.37
2019-03-02T05:37:57.748Z,13.43
2019-03-02T05:43:28.273Z,14.00
2019-03-02T05:49:03.837Z,14.60
2019-03-02T05:54:33.211Z,17.40
2019-03-02T06:00:03.149Z,15.03
2019-03-02T06:05:32.576Z,14.80
2019-03-02T06:11:03.351Z,12.93
2019-03-02T06:16:32.853Z,13.73
2019-03-02T06:22:02.337Z,11.33
2019-03-02T06:27:31.657Z,12.97
2019-03-02T06:33:00.973Z,14.00
2019-03-02T06:38:32.124Z,14.53
2019-03-02T06:44:02.341Z,12.30
2019-03-02T06:49:31.764Z,16.90
2019-03-02T06:55:01.234Z,16.77
2019-03-02T07:00:32.588Z,16.33
2019-03-02T07:06:01.916Z,16.50
2019-03-02T07:11:33.554Z,19.03
2019-03-02T07:17:02.381Z,17.27
2019-03-02T07:22:31.922Z,17.80
2019-03-02T07:28:01.974Z,17.10
2019-03-02T07:33:32.401Z,15.57
2019-03-02T07:39:01.712Z,16.10
2019-03-02T07:44:33.348Z,17.67
2019-03-02T07:50:03.048Z,16.80
2019-03-02T07:55:32.365Z,14.47
2019-03-02T08:01:01.794Z,15.93
2019-03-02T08:06:32.212Z,14.43
2019-03-02T08:12:01.642Z,16.63
2019-03-02T08:17:31.003Z,16.40
2019-03-02T08:23:00.436Z,17.30
2019-03-02T08:28:29.995Z,17.13
2019-03-02T08:33:59.463Z,16.47
2019-03-02T08:39:29.022Z,18.00
2019-03-02T08:44:58.922Z,16.50
2019-03-02T08:50:28.446Z,17.30
2019-03-02T08:55:57.850Z,15.37
2019-03-02T09:01:29.273Z,15.40
2019-03-02T09:07:00.291Z,15.70
2019-03-02T09:12:29.922Z,14.57
2019-03-02T09:17:59.263Z,16.07
2019-03-02T09:23:28.664Z,16.57
2019-03-02T09:28:58.717Z,15.00
2019-03-02T09:34:28.211Z,14.93
2019-03-02T09:39:58.727Z,12.50
2019-03-02T09:45:30.518Z,14.37
2019-03-02T09:51:02.085Z,13.87
2019-03-02T09:56:31.931Z,13.93
2019-03-02T10:02:01.452Z,14.60
2019-03-02T10:07:30.896Z,13.60
2019-03-02T10:13:00.749Z,13.73
2019-03-02T10:18:30.240Z,13.60
2019-03-02T10:23:59.638Z,13.03
2019-03-02T10:29:32.187Z,10.17
2019-03-02T10:35:01.273Z,13.03
2019-03-02T10:40:32.629Z,11.70
2019-03-02T10:46:02.246Z,11.47
2019-03-02T10:51:33.994Z,12.50
2019-03-02T10:57:02.721Z,11.33
2019-03-02T11:02:34.638Z,12.00
2019-03-02T11:08:05.889Z,9.40
2019-03-02T11:13:37.033Z,10.10
2019-03-02T11:19:25.213Z,11.10
2019-03-02T11:25:12.501Z,11.20
2019-03-02T11:30:46.266Z,10.37
2019-03-02T11:36:17.360Z,10.67
2019-03-02T11:41:57.609Z,11.07
2019-03-02T11:47:28.729Z,10.53
2019-03-02T11:53:15.970Z,9.50
2019-03-02T11:58:58.298Z,10.03
2019-03-02T12:04:32.629Z,10.70
2019-03-02T12:10:05.226Z,10.57
2019-03-02T12:15:49.319Z,9.60
2019-03-02T12:21:23.820Z,9.53
2019-03-02T12:27:13.490Z,10.70
2019-03-02T12:32:56.597Z,11.10
2019-03-02T12:38:44.659Z,10.57
2019-03-02T12:44:22.428Z,11.00
2019-03-02T12:49:59.273Z,11.30
2019-03-02T12:55:32.913Z,9.90
2019-03-02T13:01:03.941Z,10.40
2019-03-02T13:06:51.058Z,10.00
2019-03-02T13:12:22.330Z,10.50
2019-03-02T13:18:05.646Z,11.27
2019-03-02T13:23:42.672Z,11.90
2019-03-02T13:29:16.440Z,9.60
2019-03-02T13:34:48.266Z,11.70
2019-03-02T13:40:34.785Z,10.40
2019-03-02T13:46:05.875Z,9.50
2019-03-02T13:51:42.859Z,8.67
2019-03-02T13:57:27.595Z,8.30
2019-03-02T14:03:04.663Z,8.70
2019-03-02T14:08:44.472Z,8.63
2019-03-02T14:14:15.711Z,10.70
2019-03-02T14:20:03.573Z,8.87
2019-03-02T14:25:46.694Z,9.87
2019-03-02T14:31:37.371Z,9.67
2019-03-02T14:37:12.812Z,9.93
2019-03-02T14:42:46.473Z,8.83
2019-03-02T14:48:36.278Z,8.70
2019-03-02T14:54:09.076Z,8.63
2019-03-02T14:59:50.180Z,8.77
2019-03-02T15:05:32.181Z,9.00
2019-03-02T15:11:13.547Z,8.50
2019-03-02T15:16:54.571Z,9.47
2019-03-02T15:22:31.799Z,9.00
2019-03-02T15:28:02.773Z,9.13
2019-03-02T15:33:37.810Z,9.30
2019-03-02T15:39:28.524Z,7.73
2019-03-02T15:45:05.161Z,9.80
2019-03-02T15:50:36.509Z,10.07
2019-03-02T15:56:07.667Z,8.60
2019-03-02T16:01:38.701Z,8.40
2019-03-02T16:07:20.003Z,10.10
2019-03-02T16:12:56.159Z,8.97
2019-03-02T16:18:38.397Z,8.20
2019-03-02T16:24:19.901Z,9.10
2019-03-02T16:35:42.504Z,7.60
2019-03-02T16:41:31.122Z,7.60
2019-03-02T16:52:55.873Z,7.67
2019-03-02T16:58:37.884Z,8.43
2019-03-02T17:04:15.164Z,10.13
2019-03-02T17:09:50.562Z,10.57
2019-03-02T17:15:24.939Z,9.70
2019-03-02T17:21:04.727Z,9.13
2019-03-02T17:32:20.895Z,10.00
2019-03-02T17:37:51.822Z,8.70
2019-03-02T17:43:25.462Z,10.30
2019-03-02T17:49:10.555Z,11.33
2019-03-02T17:54:53.785Z,10.83
2019-03-02T18:00:22.969Z,10.60
2019-03-02T18:05:57.310Z,10.50
2019-03-02T18:11:28.440Z,11.73
2019-03-02T18:17:19.053Z,10.40
2019-03-02T18:22:47.781Z,10.93
2019-03-02T18:28:17.128Z,8.77
2019-03-02T18:33:48.781Z,9.07
2019-03-02T18:39:18.250Z,9.90
2019-03-02T18:44:54.650Z,7.57
2019-03-02T18:50:53.013Z,8.53
2019-03-02T18:56:28.421Z,9.07
2019-03-02T19:02:11.523Z,8.80
2019-03-02T19:07:40.640Z,8.70
2019-03-02T19:13:11.590Z,9.07
2019-03-02T19:18:44.905Z,9.00
2019-03-02T19:24:23.440Z,8.80
2019-03-02T19:30:02.432Z,8.70
2019-03-02T19:35:35.621Z,8.50
2019-03-02T19:41:10.180Z,9.53
2019-03-02T19:46:41.836Z,9.07
2019-03-02T19:52:13.533Z,8.67
2019-03-02T19:57:45.196Z,8.10
2019-03-02T20:03:33.883Z,8.97
2019-03-02T20:09:08.902Z,9.20
2019-03-02T20:14:42.147Z,10.13
2019-03-02T20:20:15.767Z,10.70
2019-03-02T20:25:45.106Z,10.40
2019-03-02T20:31:14.637Z,9.80
2019-03-02T20:36:43.940Z,9.20
2019-03-02T20:42:13.354Z,8.30
2019-03-02T20:47:42.685Z,9.23
2019-03-02T20:53:12.017Z,8.90
2019-03-02T20:58:41.400Z,10.00
2019-03-02T21:04:11.309Z,10.33
2019-03-02T21:09:40.914Z,9.53
2019-03-02T21:15:15.128Z,10.13
2019-03-02T21:20:53.618Z,10.27
2019-03-02T21:26:23.093Z,9.63
2019-03-02T21:31:52.706Z,9.43
2019-03-02T21:37:22.175Z,10.40
2019-03-02T21:42:51.637Z,8.80
2019-03-02T21:48:21.033Z,8.77
2019-03-02T21:53:50.357Z,8.30
2019-03-02T21:59:25.735Z,8.20
2019-03-02T22:04:55.161Z,7.93
2019-03-02T22:10:42.138Z,7.13
2019-03-02T22:16:12.613Z,7.30
2019-03-02T22:21:41.927Z,7.00
2019-03-02T22:27:11.310Z,8.27
2019-03-02T22:32:42.191Z,7.73
2019-03-02T22:38:13.318Z,6.93
2019-03-02T22:43:43.264Z,6.20
2019-03-02T22:49:12.659Z,5.67
2019-03-02T22:54:42.058Z,5.00
2019-03-02T23:00:31.538Z,5.60
2019-03-02T23:06:00.951Z,5.50
2019-03-02T23:11:31.509Z,6.60
2019-03-02T23:17:00.956Z,5.53
2019-03-02T23:22:30.411Z,5.50
2019-03-02T23:27:59.799Z,4.63
2019-03-02T23:33:30.738Z,4.73
2019-03-02T23:39:00.215Z,4.90
2019-03-02T23:44:29.715Z,4.77
2019-03-02T23:49:59.214Z,4.23
2019-03-02T23:55:28.667Z,5.33
